Address 0xe41977a1db8646a3ca3eed2284ef168055a39f0d 1

 
 
Txn Hash Method
Block
From
To
Value [Txn Fee]
0xa9fa431e539ad162da55a93380e099dc2f6c2512f49728d13d0bbb0399212de40x5866cc8e131596262021-12-03 13:02:461 min ago0xe41977a1db8646a3ca3eed2284ef168055a39f0dOUT 0xc6f0cbc36575ba122a0b23d4b78c57ba5cc67b1f0 BNB0.000329196
0xe8a114073c8ade85279d4f05eb6265173099e4deefb5ada1210d6efea63205220x5866cc8e131596012021-12-03 13:01:312 mins ago0xe41977a1db8646a3ca3eed2284ef168055a39f0dOUT 0xc6f0cbc36575ba122a0b23d4b78c57ba5cc67b1f0 BNB0.000248435
0x212e359599b6c1c0e2c0ae6b85e24ad2f680603a9747e45964493749e5deec9e0x5866cc8e131595602021-12-03 12:59:284 mins ago0xe41977a1db8646a3ca3eed2284ef168055a39f0dOUT 0xc6f0cbc36575ba122a0b23d4b78c57ba5cc67b1f0 BNB0.001060095
0x40fa5d33f61856083eead57e935775f648985ea5025ad64d51d95c42cff69c080x5866cc8e131591512021-12-03 12:38:0226 mins ago0xe41977a1db8646a3ca3eed2284ef168055a39f0dOUT 0xc6f0cbc36575ba122a0b23d4b78c57ba5cc67b1f0 BNB0.00027421
0x184f9d71d0bae8996168b5450f7a6a793c44b38579019d922b801d00a0fb852f0x5866cc8e131579002021-12-03 11:31:511 hr 32 mins ago0xe41977a1db8646a3ca3eed2284ef168055a39f0dOUT 0xc6f0cbc36575ba122a0b23d4b78c57ba5cc67b1f0 BNB0.000216585
0x1c267add3d41f25fd2280e9664bce0509d9e2003386fa7c64f9a3001315ae2700x5866cc8e131578892021-12-03 11:31:181 hr 32 mins ago0xe41977a1db8646a3ca3eed2284ef168055a39f0dOUT 0xc6f0cbc36575ba122a0b23d4b78c57ba5cc67b1f0 BNB0.0002382435
0xa6f2597a33880b8d4f09d5a565155364d0bc2dc7ff7a809951207bf1fcc2063e0x5866cc8e131568712021-12-03 10:40:132 hrs 23 mins ago0xe41977a1db8646a3ca3eed2284ef168055a39f0dOUT 0xc6f0cbc36575ba122a0b23d4b78c57ba5cc67b1f0 BNB0.000216575
0x32db2ff0a78fce952dbe54426cc22ee6d979b0b166630b3350c30a50bb6e40ed0x5866cc8e131565692021-12-03 10:24:462 hrs 39 mins ago0xe41977a1db8646a3ca3eed2284ef168055a39f0dOUT 0xc6f0cbc36575ba122a0b23d4b78c57ba5cc67b1f0 BNB0.000207405
0x9830edff4d5a00dbaad4008fed714e074e37d00e8169d47746a6162391bc871e0x5866cc8e131564132021-12-03 10:16:582 hrs 47 mins ago0xe41977a1db8646a3ca3eed2284ef168055a39f0dOUT 0xc6f0cbc36575ba122a0b23d4b78c57ba5cc67b1f0 BNB0.00027421
0xb4e4557f2d9097f0bfe01ee78d8be1f12d3744b582fe74c989d7667500d767b50x5866cc8e131564052021-12-03 10:16:342 hrs 47 mins ago0xe41977a1db8646a3ca3eed2284ef168055a39f0dOUT 0xc6f0cbc36575ba122a0b23d4b78c57ba5cc67b1f0 BNB0.00027421
0xfafd42d1e8bb836952c685c34eaa7e3225804b43cacaf2345a8069e9ef3358f80x5866cc8e131562842021-12-03 10:10:312 hrs 53 mins ago0xe41977a1db8646a3ca3eed2284ef168055a39f0dOUT 0xc6f0cbc36575ba122a0b23d4b78c57ba5cc67b1f0 BNB0.002235272
0x5d14c19d53621f5cca882934097c462899922828f797e2234e5b9e31641167210x5866cc8e131556152021-12-03 9:37:043 hrs 27 mins ago0xe41977a1db8646a3ca3eed2284ef168055a39f0dOUT 0xc6f0cbc36575ba122a0b23d4b78c57ba5cc67b1f0 BNB0.00029348613
0x7bc11a3e793ebb343400f0ce1aeb39cdac31c81b91ad73b5adc440d8ba5b79380x5866cc8e131554872021-12-03 9:30:393 hrs 33 mins ago0xe41977a1db8646a3ca3eed2284ef168055a39f0dOUT 0xc6f0cbc36575ba122a0b23d4b78c57ba5cc67b1f0 BNB0.000354555
0x02d10842582be084cf6b77777d9445d286e40c99756d9cb6a4801f29d83e8a5b0x5866cc8e131552632021-12-03 9:19:273 hrs 44 mins ago0xe41977a1db8646a3ca3eed2284ef168055a39f0dOUT 0xc6f0cbc36575ba122a0b23d4b78c57ba5cc67b1f0 BNB0.000332277495
0xa96ee003270c2445cf4f491b75f2cf0551c9a616a50d28a3f233bf7d8026b0c80x5866cc8e131551822021-12-03 9:15:243 hrs 48 mins ago0xe41977a1db8646a3ca3eed2284ef168055a39f0dOUT 0xc6f0cbc36575ba122a0b23d4b78c57ba5cc67b1f0 BNB0.000363665
0x70d463cf4400eb5c18121761c5e087d8d132eeefb1d46879b13472c36780dead0x5866cc8e131551252021-12-03 9:12:193 hrs 51 mins ago0xe41977a1db8646a3ca3eed2284ef168055a39f0dOUT 0xc6f0cbc36575ba122a0b23d4b78c57ba5cc67b1f0 BNB0.000622209
0x87ec47a11633fa5b34bc9df3049ac941216681189f8c554346a6127105577d020x5866cc8e131540042021-12-03 8:13:514 hrs 50 mins ago0xe41977a1db8646a3ca3eed2284ef168055a39f0dOUT 0xc6f0cbc36575ba122a0b23d4b78c57ba5cc67b1f0 BNB0.000282815
0xf9442259cd42f7f0203d98d3bd6cdae585d4842630d7ca32b388581025e029910x5866cc8e131533552021-12-03 7:41:235 hrs 22 mins ago0xe41977a1db8646a3ca3eed2284ef168055a39f0dOUT 0xc6f0cbc36575ba122a0b23d4b78c57ba5cc67b1f0 BNB0.000240945
0x979401b50fa40a8804dbee19872580769808c9e55fda2fafd94753edf189d73f0x5866cc8e131531682021-12-03 7:31:545 hrs 32 mins ago0xe41977a1db8646a3ca3eed2284ef168055a39f0dOUT 0xc6f0cbc36575ba122a0b23d4b78c57ba5cc67b1f0 BNB0.000216695
0xd475352abd6248e32b5fce5126a83b8b937bee0f9d8a5167592a98e2a2dd273d0x5866cc8e131529682021-12-03 7:21:345 hrs 42 mins ago0xe41977a1db8646a3ca3eed2284ef168055a39f0dOUT 0xc6f0cbc36575ba122a0b23d4b78c57ba5cc67b1f0 BNB0.00025983
0xfa21f2919381c7b9fe106ecd0ff5fb611ad52155548a3f4c9e694ac2c95a02e80x5866cc8e131528762021-12-03 7:16:585 hrs 47 mins ago0xe41977a1db8646a3ca3eed2284ef168055a39f0dOUT 0xc6f0cbc36575ba122a0b23d4b78c57ba5cc67b1f0 BNB0.000207405
0x21fe92eb14bb15ed35712029c03ee5afc0a2245d180db61bdee11db5ec3279fc0x5866cc8e131518232021-12-03 6:23:526 hrs 40 mins ago0xe41977a1db8646a3ca3eed2284ef168055a39f0dOUT 0xc6f0cbc36575ba122a0b23d4b78c57ba5cc67b1f0 BNB0.000216275
0xff83bea0a7ada1ad16b54220f8a62ad22ed67bb8b9365a90ed5899d4366d1b600x5866cc8e131512542021-12-03 5:55:257 hrs 8 mins ago0xe41977a1db8646a3ca3eed2284ef168055a39f0dOUT 0xc6f0cbc36575ba122a0b23d4b78c57ba5cc67b1f0 BNB0.000207575
0xeb4e1357db6e2379806ee1248b7328c7b71b49f69adf29896b0a49361823b10b0x5866cc8e131496852021-12-03 4:35:068 hrs 28 mins ago0xe41977a1db8646a3ca3eed2284ef168055a39f0dOUT 0xc6f0cbc36575ba122a0b23d4b78c57ba5cc67b1f0 BNB0.000303051
0xd291cfc64e646dd6e08beff1d4bbda9b297c56ac32c6a899553b247bd3d1775d0x5866cc8e131492702021-12-03 4:14:218 hrs 49 mins ago0xe41977a1db8646a3ca3eed2284ef168055a39f0dOUT 0xc6f0cbc36575ba122a0b23d4b78c57ba5cc67b1f0 BNB0.000355045
[ Download CSV Export 
Parent Txn Hash Block From To Value
Loading

Contract Name:
0 BNB

Compiler Version
0

Optimization Enabled:
0 BNB

Other Settings:
-NA-
Block Transaction Gas Used Reward
Age Block Fee Address BC Fee Address Voting Power Jailed Incoming
Block Uncle Number Difficulty Gas Used Reward
Loading
Loading
Make sure to use the "Vote Down" button for any spammy posts, and the "Vote Up" for interesting conversations.